createdAt,value
2022-12-26T00:01:53.085Z,4.40
2022-12-26T00:04:49.437Z,4.63
2022-12-26T00:07:15.527Z,4.40
2022-12-26T00:09:44.466Z,4.13
2022-12-26T00:12:13.136Z,4.43
2022-12-26T00:14:41.800Z,4.70
2022-12-26T00:17:10.509Z,4.40
2022-12-26T00:19:40.623Z,4.30
2022-12-26T00:22:09.871Z,4.33
2022-12-26T00:24:39.059Z,4.60
2022-12-26T00:27:07.671Z,4.30
2022-12-26T00:29:36.351Z,4.20
2022-12-26T00:32:05.421Z,4.40
2022-12-26T00:34:34.117Z,4.40
2022-12-26T00:37:04.269Z,4.00
2022-12-26T00:39:33.123Z,4.30
2022-12-26T00:42:01.728Z,4.30
2022-12-26T00:44:30.333Z,3.93
2022-12-26T00:46:58.888Z,4.30
2022-12-26T00:49:27.759Z,3.67
2022-12-26T00:51:56.420Z,3.70
2022-12-26T00:54:26.544Z,4.03
2022-12-26T00:56:55.331Z,4.23
2022-12-26T00:59:23.989Z,3.67
2022-12-26T01:01:52.750Z,3.87
2022-12-26T01:04:21.596Z,4.27
2022-12-26T01:06:50.221Z,3.80
2022-12-26T01:09:18.762Z,4.17
2022-12-26T01:11:48.845Z,4.30
2022-12-26T01:14:19.227Z,3.80
2022-12-26T01:16:48.421Z,4.17
2022-12-26T01:19:17.081Z,3.93
2022-12-26T01:21:45.718Z,3.63
2022-12-26T01:24:14.413Z,4.07
2022-12-26T01:26:43.083Z,3.63
2022-12-26T01:29:13.154Z,4.27
2022-12-26T01:31:41.766Z,3.63
2022-12-26T01:34:10.682Z,3.97
2022-12-26T01:36:39.317Z,3.90
2022-12-26T01:39:08.362Z,4.00
2022-12-26T01:41:37.722Z,4.10
2022-12-26T01:44:08.306Z,3.53
2022-12-26T01:46:41.954Z,3.37
2022-12-26T01:49:16.360Z,3.90
2022-12-26T01:51:50.095Z,3.67
2022-12-26T01:54:39.609Z,3.57
2022-12-26T01:57:12.581Z,3.37
2022-12-26T01:59:43.004Z,3.20
2022-12-26T02:02:13.637Z,3.47
2022-12-26T02:05:04.162Z,3.40
2022-12-26T02:07:33.862Z,4.00
2022-12-26T02:10:02.749Z,3.20
2022-12-26T02:12:38.425Z,3.40
2022-12-26T02:15:12.160Z,3.30
2022-12-26T02:17:43.313Z,3.47
2022-12-26T02:20:20.244Z,3.40
2022-12-26T02:23:37.700Z,3.80
2022-12-26T02:26:47.987Z,3.83
2022-12-26T02:29:47.394Z,3.63
2022-12-26T02:32:23.477Z,3.50
2022-12-26T02:34:59.094Z,3.33
2022-12-26T02:37:44.350Z,3.10
2022-12-26T02:40:34.190Z,3.50
2022-12-26T02:43:13.045Z,3.40
2022-12-26T02:46:19.457Z,3.33
2022-12-26T02:48:58.935Z,3.50
2022-12-26T02:52:05.011Z,3.27
2022-12-26T02:54:57.195Z,3.40
2022-12-26T02:57:47.143Z,3.43
2022-12-26T03:00:36.096Z,3.30
2022-12-26T03:03:25.913Z,3.20
2022-12-26T03:06:17.803Z,3.50
2022-12-26T03:09:09.525Z,3.27
2022-12-26T03:11:59.165Z,3.50
2022-12-26T03:14:30.698Z,3.70
2022-12-26T03:17:21.522Z,3.30
2022-12-26T03:20:01.186Z,3.47
2022-12-26T03:22:46.881Z,3.70
2022-12-26T03:25:37.758Z,3.40
2022-12-26T03:28:06.599Z,3.70
2022-12-26T03:30:49.465Z,3.50
2022-12-26T03:33:36.027Z,3.53
2022-12-26T03:36:05.882Z,3.30
2022-12-26T03:38:51.513Z,3.70
2022-12-26T03:41:44.150Z,3.70
2022-12-26T03:44:40.780Z,3.53
2022-12-26T03:47:36.762Z,3.43
2022-12-26T03:50:29.610Z,3.80
2022-12-26T03:53:24.332Z,3.87
2022-12-26T03:56:18.035Z,3.60
2022-12-26T03:59:08.820Z,3.50
2022-12-26T04:01:58.621Z,3.60
2022-12-26T04:04:49.304Z,3.53
2022-12-26T04:07:56.759Z,3.70
2022-12-26T04:10:49.637Z,3.47
2022-12-26T04:13:39.514Z,3.50
2022-12-26T04:16:42.945Z,3.70
2022-12-26T04:19:27.553Z,3.33
2022-12-26T04:22:21.682Z,3.87
2022-12-26T04:25:12.793Z,3.73
2022-12-26T04:27:58.634Z,3.60
2022-12-26T04:30:46.485Z,3.03
2022-12-26T04:33:37.247Z,3.63
2022-12-26T04:36:28.897Z,3.23
2022-12-26T04:39:21.560Z,3.27
2022-12-26T04:42:08.789Z,3.30
2022-12-26T04:44:38.278Z,3.50
2022-12-26T04:47:09.094Z,3.43
2022-12-26T04:50:01.340Z,3.67
2022-12-26T04:52:50.516Z,3.63
2022-12-26T04:55:19.971Z,3.47
2022-12-26T04:57:48.751Z,3.37
2022-12-26T05:00:18.194Z,3.40
2022-12-26T05:03:05.943Z,3.60
2022-12-26T05:05:56.502Z,2.97
2022-12-26T05:08:45.826Z,3.30
2022-12-26T05:11:14.508Z,3.10
2022-12-26T05:13:43.193Z,3.40
2022-12-26T05:16:29.960Z,3.47
2022-12-26T05:19:17.654Z,3.10
2022-12-26T05:22:03.821Z,3.47
2022-12-26T05:24:55.387Z,3.40
2022-12-26T05:27:42.469Z,3.10
2022-12-26T05:30:12.376Z,3.20
2022-12-26T05:32:58.191Z,3.00
2022-12-26T05:35:28.587Z,3.20
2022-12-26T05:37:57.230Z,3.20
2022-12-26T05:40:25.947Z,3.07
2022-12-26T05:42:54.712Z,2.90
2022-12-26T05:45:23.369Z,3.20
2022-12-26T05:47:52.442Z,3.23
2022-12-26T05:50:21.069Z,2.97
2022-12-26T05:52:51.107Z,3.20
2022-12-26T05:55:19.929Z,2.93
2022-12-26T05:57:48.665Z,3.00
2022-12-26T06:00:18.094Z,3.23
2022-12-26T06:02:46.797Z,2.93
2022-12-26T06:05:15.577Z,2.93
2022-12-26T06:07:44.170Z,2.90
2022-12-26T06:10:14.401Z,2.90
2022-12-26T06:12:43.050Z,3.10
2022-12-26T06:15:12.947Z,2.67
2022-12-26T06:17:41.741Z,2.90
2022-12-26T06:20:11.030Z,2.80
2022-12-26T06:22:39.939Z,2.90
2022-12-26T06:25:09.673Z,3.00
2022-12-26T06:27:39.824Z,2.60
2022-12-26T06:30:09.244Z,2.93
2022-12-26T06:32:37.940Z,2.83
2022-12-26T06:35:08.147Z,2.70
2022-12-26T06:37:36.931Z,2.97
2022-12-26T06:40:07.969Z,2.93
2022-12-26T06:42:36.573Z,2.97
2022-12-26T06:45:07.453Z,3.07
2022-12-26T06:47:36.005Z,2.93
2022-12-26T06:50:05.991Z,3.03
2022-12-26T06:52:34.644Z,2.63
2022-12-26T06:55:03.369Z,2.93
2022-12-26T06:57:32.044Z,3.43
2022-12-26T07:00:00.626Z,3.00
2022-12-26T07:02:30.707Z,3.13
2022-12-26T07:04:59.443Z,2.90
2022-12-26T07:07:28.065Z,2.80
2022-12-26T07:09:57.697Z,2.97
2022-12-26T07:12:26.322Z,3.00
2022-12-26T07:14:59.669Z,3.03
2022-12-26T07:17:31.696Z,3.23
2022-12-26T07:20:00.298Z,2.70
2022-12-26T07:22:29.768Z,2.97
2022-12-26T07:24:58.357Z,2.60
2022-12-26T07:27:27.276Z,3.10
2022-12-26T07:29:55.902Z,3.10
2022-12-26T07:32:24.656Z,2.97
2022-12-26T07:34:54.747Z,3.00
2022-12-26T07:37:23.347Z,2.67
2022-12-26T07:39:58.581Z,2.67
2022-12-26T07:42:27.582Z,3.20
2022-12-26T07:44:56.256Z,3.10
2022-12-26T07:47:24.911Z,2.80
2022-12-26T07:49:56.008Z,3.17
2022-12-26T07:52:24.690Z,2.80
2022-12-26T07:54:53.315Z,2.97
2022-12-26T07:57:47.427Z,3.10
2022-12-26T08:00:11.338Z,3.00
2022-12-26T08:02:43.281Z,3.00
2022-12-26T08:05:13.565Z,2.87
2022-12-26T08:07:42.243Z,2.87
2022-12-26T08:10:11.183Z,2.80
2022-12-26T08:12:39.952Z,3.10
2022-12-26T08:15:10.151Z,2.83
2022-12-26T08:17:38.767Z,3.20
2022-12-26T08:20:08.483Z,2.63
2022-12-26T08:22:38.536Z,2.97
2022-12-26T08:25:08.468Z,3.40
2022-12-26T08:27:37.211Z,2.80
2022-12-26T08:30:06.467Z,2.80
2022-12-26T08:32:36.216Z,2.83
2022-12-26T08:35:07.957Z,3.07
2022-12-26T08:37:38.028Z,3.17
2022-12-26T08:40:07.753Z,2.87
2022-12-26T08:42:44.588Z,2.97
2022-12-26T08:45:25.197Z,2.90
2022-12-26T08:47:56.442Z,2.90
2022-12-26T08:50:25.250Z,3.00
2022-12-26T08:52:55.438Z,3.37
2022-12-26T08:55:24.871Z,3.43
2022-12-26T08:57:53.524Z,3.40
2022-12-26T09:00:24.052Z,3.70
2022-12-26T09:02:53.887Z,3.20
2022-12-26T09:05:22.600Z,3.40
2022-12-26T09:07:51.114Z,2.80
2022-12-26T09:10:21.364Z,3.30
2022-12-26T09:12:50.001Z,2.70
2022-12-26T09:15:18.795Z,2.97
2022-12-26T09:17:47.460Z,2.97
2022-12-26T09:20:16.096Z,3.10
2022-12-26T09:22:54.578Z,3.20
2022-12-26T09:25:27.740Z,2.73
2022-12-26T09:27:59.329Z,3.07
2022-12-26T09:30:28.244Z,3.10
2022-12-26T09:32:56.818Z,3.10
2022-12-26T09:35:25.487Z,3.30
2022-12-26T09:37:54.058Z,3.17
2022-12-26T09:40:29.836Z,3.17
2022-12-26T09:43:13.690Z,3.37
2022-12-26T09:45:56.002Z,3.37
2022-12-26T09:48:30.599Z,2.90
2022-12-26T09:50:59.383Z,3.00
2022-12-26T09:53:33.373Z,3.53
2022-12-26T09:56:10.885Z,3.30
2022-12-26T09:58:51.860Z,3.43
2022-12-26T10:01:23.896Z,3.50
2022-12-26T10:03:56.569Z,3.40
2022-12-26T10:06:26.849Z,3.53
2022-12-26T10:09:08.216Z,4.63
2022-12-26T10:11:54.335Z,3.80
2022-12-26T10:14:33.282Z,3.90
2022-12-26T10:17:06.578Z,3.70
2022-12-26T10:19:45.084Z,3.97
2022-12-26T10:22:37.735Z,3.93
2022-12-26T10:25:17.925Z,4.03
2022-12-26T10:27:50.526Z,4.10
2022-12-26T10:30:24.903Z,4.30
2022-12-26T10:32:59.513Z,3.60
2022-12-26T10:35:34.313Z,3.90
2022-12-26T10:38:07.893Z,3.90
2022-12-26T10:40:42.004Z,3.87
2022-12-26T10:43:24.768Z,4.23
2022-12-26T10:46:11.867Z,4.03
2022-12-26T10:48:40.688Z,3.90
2022-12-26T10:51:11.828Z,4.00
2022-12-26T10:53:45.011Z,3.90
2022-12-26T10:56:18.098Z,4.07
2022-12-26T10:59:01.636Z,3.87
2022-12-26T11:01:36.402Z,3.67
2022-12-26T11:04:07.423Z,4.07
2022-12-26T11:06:42.299Z,4.30
2022-12-26T11:09:29.446Z,3.93
2022-12-26T11:11:58.554Z,3.90
2022-12-26T11:14:42.433Z,3.43
2022-12-26T11:17:14.885Z,3.47
2022-12-26T11:19:45.474Z,3.87
2022-12-26T11:22:22.694Z,3.00
2022-12-26T11:25:17.305Z,2.73
2022-12-26T11:27:48.358Z,2.43
2022-12-26T11:30:23.076Z,2.53
2022-12-26T11:33:08.389Z,2.27
2022-12-26T11:35:49.476Z,2.30
2022-12-26T11:38:37.515Z,2.17
2022-12-26T11:41:30.814Z,2.07
2022-12-26T11:44:03.813Z,2.20
2022-12-26T11:46:39.281Z,1.90
2022-12-26T11:49:11.955Z,2.27
2022-12-26T11:51:43.802Z,2.30
2022-12-26T11:54:33.989Z,2.40
2022-12-26T11:57:10.219Z,2.40
2022-12-26T11:59:39.373Z,2.50
2022-12-26T12:02:26.517Z,2.37
2022-12-26T12:04:59.404Z,2.37
2022-12-26T12:07:55.141Z,1.93
2022-12-26T12:10:53.428Z,2.10
2022-12-26T12:13:36.320Z,1.80
2022-12-26T12:16:13.579Z,2.00
2022-12-26T12:18:55.039Z,2.17
2022-12-26T12:21:35.434Z,1.90
2022-12-26T12:24:28.829Z,2.20
2022-12-26T12:27:05.717Z,1.87
2022-12-26T12:29:49.946Z,2.13
2022-12-26T12:32:24.283Z,1.80
2022-12-26T12:35:06.510Z,2.00
2022-12-26T12:37:49.354Z,1.63
2022-12-26T12:40:30.752Z,1.80
2022-12-26T12:43:05.699Z,1.80
2022-12-26T12:45:36.969Z,2.10
2022-12-26T12:48:39.767Z,1.80
2022-12-26T12:51:21.094Z,1.60
2022-12-26T12:54:16.302Z,1.70
2022-12-26T12:56:50.445Z,1.93
2022-12-26T12:59:31.523Z,1.73
2022-12-26T13:02:10.252Z,1.93
2022-12-26T13:04:43.216Z,1.63
2022-12-26T13:07:18.260Z,1.77
2022-12-26T13:09:52.694Z,1.40
2022-12-26T13:12:24.481Z,1.70
2022-12-26T13:14:57.629Z,1.50
2022-12-26T13:17:32.937Z,1.33
2022-12-26T13:20:05.865Z,1.40
2022-12-26T13:22:53.759Z,1.57
2022-12-26T13:25:26.597Z,1.60
2022-12-26T13:28:09.781Z,1.50
2022-12-26T13:30:39.395Z,1.60
2022-12-26T13:33:08.258Z,1.60
2022-12-26T13:35:56.592Z,1.70
2022-12-26T13:39:06.937Z,1.90
2022-12-26T13:41:55.175Z,1.50
2022-12-26T13:44:28.509Z,1.80
2022-12-26T13:46:58.640Z,1.40
2022-12-26T13:49:36.479Z,1.67
2022-12-26T13:52:34.803Z,1.57
2022-12-26T13:55:43.911Z,1.73
2022-12-26T13:58:47.626Z,1.90
2022-12-26T14:01:34.039Z,1.70
2022-12-26T14:04:23.815Z,1.83
2022-12-26T14:07:11.456Z,1.63
2022-12-26T14:10:05.698Z,1.80
2022-12-26T14:12:51.022Z,1.93
2022-12-26T14:15:29.826Z,1.90
2022-12-26T14:18:12.156Z,1.83
2022-12-26T14:20:46.091Z,1.70
2022-12-26T14:23:29.648Z,1.70
2022-12-26T14:26:04.624Z,1.80
2022-12-26T14:28:45.154Z,2.00
2022-12-26T14:31:23.346Z,1.77
2022-12-26T14:33:58.111Z,2.00
2022-12-26T14:36:37.817Z,1.90
2022-12-26T14:39:18.589Z,1.70
2022-12-26T14:42:37.683Z,1.73
2022-12-26T14:45:14.458Z,2.00
2022-12-26T14:47:46.630Z,1.70
2022-12-26T14:50:42.018Z,1.97
2022-12-26T14:53:32.228Z,2.07
2022-12-26T14:56:02.465Z,2.00
2022-12-26T14:58:40.658Z,1.90
2022-12-26T15:01:45.180Z,2.10
2022-12-26T15:04:45.908Z,1.63
2022-12-26T15:07:43.948Z,1.80
2022-12-26T15:10:43.472Z,1.57
2022-12-26T15:13:35.511Z,1.70
2022-12-26T15:16:30.077Z,1.60
2022-12-26T15:19:25.047Z,2.10
2022-12-26T15:22:21.767Z,2.30
2022-12-26T15:25:21.390Z,2.90
2022-12-26T15:28:25.429Z,2.90
2022-12-26T15:31:20.678Z,2.90
2022-12-26T15:33:58.191Z,2.57
2022-12-26T15:36:37.236Z,4.30
2022-12-26T15:39:19.043Z,3.13
2022-12-26T15:41:49.388Z,2.10
2022-12-26T15:44:29.851Z,2.10
2022-12-26T15:47:12.587Z,2.70
2022-12-26T15:49:52.653Z,2.80
2022-12-26T15:52:33.977Z,2.00
2022-12-26T15:55:17.881Z,2.10
2022-12-26T15:57:53.355Z,1.77
2022-12-26T16:00:24.952Z,1.63
2022-12-26T16:03:25.011Z,1.70
2022-12-26T16:05:59.573Z,1.90
2022-12-26T16:08:54.655Z,1.60
2022-12-26T16:11:25.598Z,1.67
2022-12-26T16:13:57.726Z,1.63
2022-12-26T16:16:37.420Z,2.00
2022-12-26T16:19:19.863Z,1.70
2022-12-26T16:22:09.367Z,1.63
2022-12-26T16:24:42.201Z,1.60
2022-12-26T16:27:18.719Z,1.93
2022-12-26T16:29:50.173Z,1.73
2022-12-26T16:32:21.451Z,2.07
2022-12-26T16:34:51.040Z,1.90
2022-12-26T16:37:23.033Z,2.00
2022-12-26T16:40:29.386Z,2.17
2022-12-26T16:43:01.185Z,2.00
2022-12-26T16:45:33.244Z,2.10
2022-12-26T16:48:02.549Z,2.10
2022-12-26T16:50:33.243Z,2.30
2022-12-26T16:53:12.465Z,2.83
2022-12-26T16:55:47.822Z,2.07
2022-12-26T16:58:24.880Z,2.17
2022-12-26T17:01:04.806Z,2.20
2022-12-26T17:03:40.594Z,2.40
2022-12-26T17:06:13.942Z,2.30
2022-12-26T17:08:45.764Z,2.27
2022-12-26T17:11:16.207Z,2.67
2022-12-26T17:13:51.401Z,2.60
2022-12-26T17:16:23.120Z,2.47
2022-12-26T17:18:53.773Z,2.50
2022-12-26T17:21:30.117Z,2.10
2022-12-26T17:24:25.485Z,2.47
2022-12-26T17:27:10.769Z,2.60
2022-12-26T17:29:54.332Z,2.63
2022-12-26T17:32:37.318Z,2.70
2022-12-26T17:35:08.924Z,2.80
2022-12-26T17:37:37.869Z,2.47
2022-12-26T17:40:20.388Z,2.50
2022-12-26T17:42:52.609Z,2.70
2022-12-26T17:45:23.449Z,3.00
2022-12-26T17:47:53.232Z,2.90
2022-12-26T17:50:22.404Z,2.90
2022-12-26T17:52:51.577Z,3.30
2022-12-26T17:55:25.125Z,2.87
2022-12-26T17:57:55.467Z,2.90
2022-12-26T18:00:26.747Z,3.10
2022-12-26T18:02:55.839Z,3.27
2022-12-26T18:05:24.514Z,2.97
2022-12-26T18:07:53.846Z,3.27
2022-12-26T18:10:24.229Z,3.40
2022-12-26T18:12:54.805Z,3.20
2022-12-26T18:15:24.330Z,3.37
2022-12-26T18:17:53.989Z,2.93
2022-12-26T18:20:24.975Z,2.80
2022-12-26T18:22:53.844Z,3.00
2022-12-26T18:25:24.697Z,3.00
2022-12-26T18:27:54.747Z,2.93
2022-12-26T18:30:25.149Z,2.63
2022-12-26T18:32:55.197Z,2.77
2022-12-26T18:35:24.218Z,2.57
2022-12-26T18:37:54.368Z,2.73
2022-12-26T18:40:30.304Z,2.53
2022-12-26T18:43:00.807Z,2.50
2022-12-26T18:45:30.276Z,2.53
2022-12-26T18:47:59.214Z,2.77
2022-12-26T18:50:29.323Z,3.20
2022-12-26T18:52:58.008Z,5.17
2022-12-26T18:55:28.689Z,1.70
2022-12-26T18:57:59.259Z,1.20
2022-12-26T19:00:28.460Z,1.40
2022-12-26T19:02:57.142Z,1.90
2022-12-26T19:05:28.842Z,1.80
2022-12-26T19:07:57.993Z,6.53
2022-12-26T19:10:29.055Z,5.23
2022-12-26T19:13:05.336Z,3.70
2022-12-26T19:15:35.523Z,3.10
2022-12-26T19:18:04.487Z,3.20
2022-12-26T19:20:35.626Z,5.67
2022-12-26T19:23:06.380Z,7.37
2022-12-26T19:25:36.142Z,7.07
2022-12-26T19:28:06.801Z,4.53
2022-12-26T19:30:38.964Z,3.10
2022-12-26T19:33:08.298Z,3.47
2022-12-26T19:35:37.052Z,2.97
2022-12-26T19:38:05.710Z,4.03
2022-12-26T19:40:34.348Z,3.70
2022-12-26T19:43:03.038Z,2.50
2022-12-26T19:45:34.364Z,3.70
2022-12-26T19:48:03.215Z,2.10
2022-12-26T19:50:31.957Z,1.80
2022-12-26T19:53:00.632Z,1.97
2022-12-26T19:55:29.335Z,1.93
2022-12-26T19:57:58.017Z,1.80
2022-12-26T20:00:26.636Z,2.00
2022-12-26T20:02:56.750Z,1.53
2022-12-26T20:05:25.425Z,1.50
2022-12-26T20:07:54.073Z,1.50
2022-12-26T20:10:22.840Z,1.63
2022-12-26T20:12:51.435Z,1.50
2022-12-26T20:15:20.147Z,1.30
2022-12-26T20:17:49.295Z,1.40
2022-12-26T20:20:19.586Z,1.40
2022-12-26T20:22:52.950Z,1.23
2022-12-26T20:25:22.268Z,1.50
2022-12-26T20:27:51.156Z,1.20
2022-12-26T20:30:20.053Z,1.20
2022-12-26T20:32:48.610Z,1.13
2022-12-26T20:35:18.856Z,1.20
2022-12-26T20:37:47.609Z,1.37
2022-12-26T20:40:16.336Z,1.40
2022-12-26T20:42:45.102Z,1.40
2022-12-26T20:45:13.838Z,1.70
2022-12-26T20:47:42.620Z,1.40
2022-12-26T20:50:11.505Z,1.90
2022-12-26T20:52:41.623Z,1.50
2022-12-26T20:55:10.895Z,1.50
2022-12-26T20:57:39.810Z,1.33
2022-12-26T21:00:09.790Z,1.70
2022-12-26T21:02:38.575Z,1.40
2022-12-26T21:05:08.137Z,1.30
2022-12-26T21:07:36.755Z,1.50
2022-12-26T21:10:07.897Z,1.33
2022-12-26T21:12:36.582Z,1.60
2022-12-26T21:15:05.811Z,1.30
2022-12-26T21:17:34.449Z,1.50
2022-12-26T21:20:03.917Z,1.47
2022-12-26T21:22:32.665Z,1.20
2022-12-26T21:25:01.452Z,1.17
2022-12-26T21:27:31.621Z,1.13
2022-12-26T21:30:00.340Z,1.33
2022-12-26T21:32:29.089Z,1.50
2022-12-26T21:34:57.707Z,1.43
2022-12-26T21:37:43.801Z,1.33
2022-12-26T21:40:13.242Z,1.20
2022-12-26T21:42:43.452Z,1.10
2022-12-26T21:45:12.861Z,1.20
2022-12-26T21:47:41.701Z,1.10
2022-12-26T21:50:10.945Z,1.20
2022-12-26T21:52:39.658Z,1.30
2022-12-26T21:55:31.197Z,1.10
2022-12-26T21:58:04.088Z,1.13
2022-12-26T22:00:35.086Z,1.10
2022-12-26T22:03:21.907Z,1.30
2022-12-26T22:05:50.760Z,1.20
2022-12-26T22:08:19.442Z,1.10
2022-12-26T22:11:06.425Z,1.20
2022-12-26T22:13:42.102Z,1.23
2022-12-26T22:16:12.545Z,1.07
2022-12-26T22:18:43.049Z,1.20
2022-12-26T22:21:15.111Z,1.20
2022-12-26T22:23:44.554Z,1.90
2022-12-26T22:26:15.326Z,1.80
2022-12-26T22:28:45.883Z,3.00
2022-12-26T22:31:20.941Z,3.53
2022-12-26T22:33:49.919Z,2.20
2022-12-26T22:36:18.740Z,6.03
2022-12-26T22:38:47.447Z,5.87
2022-12-26T22:41:16.115Z,6.53
2022-12-26T22:43:46.559Z,11.30
2022-12-26T22:46:15.810Z,2.63
2022-12-26T22:48:44.499Z,9.60
2022-12-26T22:51:17.379Z,2.53
2022-12-26T22:53:45.938Z,3.67
2022-12-26T22:56:14.857Z,1.90
2022-12-26T22:58:43.551Z,3.83
2022-12-26T23:01:18.868Z,2.40
2022-12-26T23:03:47.827Z,1.97
2022-12-26T23:06:21.739Z,1.50
2022-12-26T23:08:51.240Z,1.43
2022-12-26T23:11:20.478Z,1.50
2022-12-26T23:13:50.391Z,1.20
2022-12-26T23:16:29.621Z,1.10
2022-12-26T23:19:19.428Z,0.77
2022-12-26T23:21:50.616Z,0.93
2022-12-26T23:24:21.299Z,0.90
2022-12-26T23:26:53.060Z,0.80
2022-12-26T23:29:41.876Z,0.70
2022-12-26T23:32:12.440Z,0.90
2022-12-26T23:34:41.079Z,0.83
2022-12-26T23:37:09.840Z,1.00
2022-12-26T23:39:38.491Z,0.90
2022-12-26T23:42:07.546Z,0.90
2022-12-26T23:44:36.273Z,1.10
2022-12-26T23:47:05.218Z,1.20
2022-12-26T23:49:35.636Z,1.80
2022-12-26T23:52:04.510Z,1.17
2022-12-26T23:54:33.120Z,1.13
2022-12-26T23:57:01.896Z,1.03
2022-12-26T23:59:30.655Z,1.10
